Time;durP1;ratioP1;P1;durP2;ratioP2;P2;SDS_P1;SDS_P2;PMS_P1;PMS_P2;Temp;Humidity;BMP_temperature;BMP_pressure;BME280_temperature;BME280_humidity;BME280_pressure;Samples;Min_cycle;Max_cycle;Signal;HPM_P1;HPM_P2
2021/09/19 00:01:07;;;;;;;1.70;0.90;;;23.80;53.40;;;;;;5033501;28;20403;-64
2021/09/19 00:03:33;;;;;;;2.03;0.98;;;23.70;53.40;;;;;;5033307;28;20387;-64
2021/09/19 00:05:58;;;;;;;1.90;1.00;;;23.70;53.30;;;;;;5032374;28;20402;-64
2021/09/19 00:08:27;;;;;;;1.33;0.82;;;23.70;53.30;;;;;;5033453;28;20407;-63
2021/09/19 00:10:53;;;;;;;2.28;1.20;;;23.70;53.20;;;;;;5033576;28;20431;-64
2021/09/19 00:13:18;;;;;;;1.70;0.97;;;23.70;53.00;;;;;;5033276;28;20945;-64
2021/09/19 00:15:44;;;;;;;1.90;1.17;;;23.70;53.20;;;;;;5033215;28;20483;-64
2021/09/19 00:18:10;;;;;;;1.80;1.10;;;23.70;53.20;;;;;;5033296;28;20438;-64
2021/09/19 00:20:36;;;;;;;2.08;1.00;;;23.70;53.20;;;;;;5033636;28;20482;-64
2021/09/19 00:23:01;;;;;;;3.30;1.05;;;23.70;53.20;;;;;;5033257;28;21280;-64
2021/09/19 00:25:27;;;;;;;1.98;1.10;;;23.70;53.20;;;;;;5032260;28;20868;-64
2021/09/19 00:27:52;;;;;;;1.20;0.90;;;23.70;52.90;;;;;;5033210;28;20761;-64
2021/09/19 00:30:18;;;;;;;1.40;1.00;;;23.70;53.10;;;;;;5033177;28;20914;-63
2021/09/19 00:32:44;;;;;;;2.30;1.17;;;23.60;53.60;;;;;;5033074;28;20383;-64
2021/09/19 00:35:10;;;;;;;1.98;1.10;;;23.60;52.90;;;;;;5033104;28;20402;-63
2021/09/19 00:37:35;;;;;;;1.90;0.82;;;23.60;52.80;;;;;;5032106;28;20402;-64
2021/09/19 00:40:01;;;;;;;1.70;1.25;;;23.60;52.90;;;;;;5032401;28;20415;-63
2021/09/19 00:42:27;;;;;;;1.90;0.90;;;23.60;53.00;;;;;;5032961;28;20551;-64
2021/09/19 00:45:28;;;;;;;1.30;1.00;;;23.60;53.00;;;;;;5032823;28;20414;-64
2021/09/19 00:47:54;;;;;;;1.30;1.00;;;23.60;52.80;;;;;;5023778;28;20473;-64
2021/09/19 00:50:22;;;;;;;1.10;0.93;;;23.60;52.90;;;;;;5033058;28;20745;-63
2021/09/19 00:52:49;;;;;;;1.42;1.00;;;23.60;52.80;;;;;;5032612;28;20478;-64
2021/09/19 00:55:17;;;;;;;1.20;0.90;;;23.60;53.00;;;;;;5032758;28;20391;-64
2021/09/19 00:57:46;;;;;;;2.20;1.10;;;23.60;53.00;;;;;;5032522;28;20391;-64
2021/09/19 01:00:14;;;;;;;1.58;0.98;;;23.60;52.90;;;;;;5032519;28;20411;-64
2021/09/19 01:02:41;;;;;;;1.52;1.10;;;23.60;52.80;;;;;;5031253;28;20477;-64
2021/09/19 01:05:08;;;;;;;2.60;1.20;;;23.60;52.90;;;;;;5032514;28;20920;-64
2021/09/19 01:07:34;;;;;;;1.70;1.00;;;23.60;53.00;;;;;;5031765;28;20407;-64
2021/09/19 01:10:00;;;;;;;2.10;1.00;;;23.50;52.90;;;;;;5032259;28;20931;-63
2021/09/19 01:12:26;;;;;;;1.70;1.10;;;23.60;52.90;;;;;;5032509;28;20395;-64
2021/09/19 01:14:52;;;;;;;1.23;1.00;;;23.60;52.90;;;;;;5031060;28;20762;-64
2021/09/19 01:17:18;;;;;;;1.65;1.10;;;23.50;52.80;;;;;;5032136;28;20394;-65
2021/09/19 01:19:47;;;;;;;2.17;1.20;;;23.50;52.80;;;;;;5031844;28;20494;-64
2021/09/19 01:22:14;;;;;;;1.40;0.90;;;23.50;52.80;;;;;;5032163;28;20390;-64
2021/09/19 01:24:41;;;;;;;1.42;0.95;;;23.50;52.80;;;;;;5032160;28;20399;-64
2021/09/19 01:27:07;;;;;;;1.33;1.00;;;23.50;52.70;;;;;;5032163;28;20379;-64
2021/09/19 01:29:34;;;;;;;1.27;1.00;;;23.50;52.60;;;;;;5031633;28;20458;-64
2021/09/19 01:32:00;;;;;;;1.70;0.90;;;23.50;52.70;;;;;;5032021;28;20470;-64
2021/09/19 01:34:26;;;;;;;1.20;1.00;;;23.50;52.70;;;;;;5032026;28;20425;-64
2021/09/19 01:36:52;;;;;;;1.55;1.00;;;23.50;52.60;;;;;;5031140;28;20437;-64
2021/09/19 01:39:19;;;;;;;1.27;0.88;;;23.50;52.70;;;;;;5030170;28;20419;-64
2021/09/19 01:41:44;;;;;;;1.55;1.00;;;23.50;52.70;;;;;;5031620;28;20884;-64
2021/09/19 01:44:10;;;;;;;1.30;1.00;;;23.50;52.70;;;;;;5031885;28;20464;-64
2021/09/19 01:46:36;;;;;;;1.48;0.93;;;23.50;53.00;;;;;;5030536;28;20903;-64
2021/09/19 01:49:04;;;;;;;1.58;1.02;;;23.50;52.70;;;;;;5031798;28;20481;-64
2021/09/19 01:51:30;;;;;;;2.00;0.80;;;23.40;52.90;;;;;;5031346;28;20383;-64
2021/09/19 01:53:56;;;;;;;1.30;1.00;;;23.40;52.60;;;;;;5031025;28;20734;-63
2021/09/19 01:56:24;;;;;;;1.52;1.00;;;23.40;52.70;;;;;;5031284;28;20390;-66
2021/09/19 01:58:53;;;;;;;1.55;0.90;;;23.50;52.60;;;;;;5031530;28;20409;-64
2021/09/19 02:01:22;;;;;;;1.20;1.00;;;23.40;52.60;;;;;;5031630;28;20488;-69
2021/09/19 02:03:49;;;;;;;1.10;0.90;;;23.40;52.60;;;;;;5031216;28;20390;-64
2021/09/19 02:06:15;;;;;;;1.38;1.00;;;23.40;52.60;;;;;;5031662;28;20908;-63
2021/09/19 02:08:41;;;;;;;1.50;1.08;;;23.40;52.60;;;;;;5031349;28;20414;-63
2021/09/19 02:11:10;;;;;;;1.57;1.07;;;23.40;52.50;;;;;;5031439;28;20395;-64
2021/09/19 02:13:38;;;;;;;1.40;1.10;;;23.40;52.80;;;;;;5030997;28;20426;-64
2021/09/19 02:16:05;;;;;;;1.30;0.98;;;23.40;52.70;;;;;;5031345;28;21539;-63
2021/09/19 02:18:31;;;;;;;1.40;1.00;;;23.40;52.70;;;;;;5031363;28;20421;-64
2021/09/19 02:20:57;;;;;;;1.30;0.90;;;23.40;52.60;;;;;;5031343;28;20387;-64
2021/09/19 02:23:23;;;;;;;1.90;0.90;;;23.40;52.70;;;;;;5031188;28;20402;-64
2021/09/19 02:25:50;;;;;;;1.30;1.00;;;23.40;52.60;;;;;;5031029;28;20486;-64
2021/09/19 02:28:16;;;;;;;1.60;0.90;;;23.40;52.70;;;;;;5031299;28;20391;-63
2021/09/19 02:30:42;;;;;;;1.70;1.20;;;23.40;52.60;;;;;;5030763;28;20742;-65
2021/09/19 02:33:08;;;;;;;1.50;1.20;;;23.40;52.70;;;;;;5031293;28;20387;-64
2021/09/19 02:35:34;;;;;;;1.60;1.10;;;23.40;52.70;;;;;;5030821;28;20387;-64
2021/09/19 02:38:00;;;;;;;1.60;1.00;;;23.40;52.60;;;;;;5031088;28;20408;-64
2021/09/19 02:40:26;;;;;;;1.60;1.10;;;23.30;52.50;;;;;;5030980;28;20399;-63
2021/09/19 02:42:53;;;;;;;1.50;1.00;;;23.30;52.60;;;;;;5031118;28;20395;-64
2021/09/19 02:45:20;;;;;;;1.23;1.00;;;23.30;52.60;;;;;;5031142;28;20861;-64
2021/09/19 02:47:45;;;;;;;1.38;1.00;;;23.30;52.60;;;;;;5032749;28;20881;-64
2021/09/19 02:50:14;;;;;;;1.67;1.10;;;23.30;52.60;;;;;;5035162;28;20391;-64
2021/09/19 02:52:40;;;;;;;1.40;0.93;;;23.30;52.50;;;;;;5034997;28;20440;-63
2021/09/19 02:55:07;;;;;;;1.50;1.00;;;23.30;52.60;;;;;;5035112;28;20480;-63
2021/09/19 02:57:33;;;;;;;1.75;1.00;;;23.30;52.70;;;;;;5034381;28;20478;-64
2021/09/19 02:59:59;;;;;;;1.30;0.90;;;23.30;52.60;;;;;;5034741;28;20506;-63
2021/09/19 03:02:25;;;;;;;1.30;1.00;;;23.30;52.60;;;;;;5034564;28;20390;-64
2021/09/19 03:04:50;;;;;;;1.15;0.90;;;23.30;52.60;;;;;;5033894;28;20387;-64
2021/09/19 03:07:16;;;;;;;1.20;0.90;;;23.30;52.60;;;;;;5034357;28;20410;-63
2021/09/19 03:09:42;;;;;;;1.25;0.90;;;23.30;52.60;;;;;;5033549;28;20891;-64
2021/09/19 03:12:07;;;;;;;1.50;1.13;;;23.30;52.60;;;;;;5034380;28;20966;-64
2021/09/19 03:14:33;;;;;;;1.20;0.90;;;23.30;52.70;;;;;;5034795;28;20391;-64
2021/09/19 03:16:59;;;;;;;1.90;1.05;;;23.30;52.70;;;;;;5034481;28;20749;-64
2021/09/19 03:19:24;;;;;;;1.67;1.10;;;23.30;52.50;;;;;;5034239;28;20441;-64
2021/09/19 03:21:50;;;;;;;1.73;1.00;;;23.20;52.60;;;;;;5034204;28;20383;-64
2021/09/19 03:24:15;;;;;;;1.47;0.90;;;23.30;52.60;;;;;;5034503;28;20388;-64
2021/09/19 03:26:41;;;;;;;2.28;1.10;;;23.20;52.60;;;;;;5034446;28;20383;-64
2021/09/19 03:29:07;;;;;;;1.17;0.93;;;23.20;52.50;;;;;;5034471;28;20403;-64
2021/09/19 03:31:32;;;;;;;1.30;0.90;;;23.20;52.60;;;;;;5033852;28;20437;-64
2021/09/19 03:33:58;;;;;;;1.30;0.90;;;23.20;52.50;;;;;;5034266;28;20441;-64
2021/09/19 03:36:24;;;;;;;1.10;0.90;;;23.20;52.60;;;;;;5034364;28;20460;-64
2021/09/19 03:38:49;;;;;;;1.35;1.00;;;23.20;52.50;;;;;;5032819;28;20977;-64
2021/09/19 03:41:15;;;;;;;1.30;0.90;;;23.20;52.60;;;;;;5032652;28;20468;-63
2021/09/19 03:43:41;;;;;;;1.40;0.90;;;23.20;52.60;;;;;;5033758;28;20391;-64
2021/09/19 03:46:07;;;;;;;1.38;0.90;;;23.20;52.60;;;;;;5032797;28;20398;-63
2021/09/19 03:48:33;;;;;;;1.27;0.90;;;23.20;52.70;;;;;;5034147;28;20760;-64
2021/09/19 03:50:59;;;;;;;1.10;0.90;;;23.20;52.50;;;;;;5033956;28;20402;-64
2021/09/19 03:53:25;;;;;;;1.50;1.00;;;23.20;52.50;;;;;;5033787;28;20449;-68
2021/09/19 03:55:51;;;;;;;1.85;1.00;;;23.20;52.50;;;;;;5033585;28;20424;-64
2021/09/19 03:58:16;;;;;;;1.27;1.00;;;23.20;52.60;;;;;;5032971;28;20428;-64
2021/09/19 04:00:42;;;;;;;1.43;0.90;;;23.20;52.40;;;;;;5033564;28;20398;-63
2021/09/19 04:03:08;;;;;;;1.45;0.80;;;23.20;52.50;;;;;;5033758;28;20390;-64
2021/09/19 04:05:36;;;;;;;1.17;0.90;;;23.10;52.50;;;;;;5033274;28;20490;-64
2021/09/19 04:08:02;;;;;;;1.02;0.80;;;23.10;52.40;;;;;;5032494;28;20407;-64
2021/09/19 04:10:27;;;;;;;1.23;1.00;;;23.10;52.40;;;;;;5033449;28;20403;-63
2021/09/19 04:12:53;;;;;;;1.30;1.10;;;23.10;52.20;;;;;;5033062;28;20849;-64
2021/09/19 04:15:18;;;;;;;1.60;0.98;;;23.10;52.40;;;;;;5033305;28;20491;-64
2021/09/19 04:17:44;;;;;;;1.30;0.90;;;23.10;52.50;;;;;;5033027;28;20434;-64
2021/09/19 04:20:11;;;;;;;1.30;0.90;;;23.10;52.50;;;;;;5033384;28;20430;-64
2021/09/19 04:22:37;;;;;;;1.27;1.00;;;23.10;52.40;;;;;;5033389;28;20395;-64
2021/09/19 04:25:06;;;;;;;1.13;0.90;;;23.10;52.70;;;;;;5033338;28;20904;-64
2021/09/19 04:27:31;;;;;;;1.40;1.10;;;23.10;52.20;;;;;;5032954;28;20390;-65
2021/09/19 04:29:57;;;;;;;1.10;0.90;;;23.10;52.50;;;;;;5033202;28;20792;-64
2021/09/19 04:32:23;;;;;;;1.23;0.93;;;23.10;52.50;;;;;;5033444;28;20387;-63
2021/09/19 04:34:48;;;;;;;1.27;1.00;;;23.10;52.50;;;;;;5033413;28;20745;-64
2021/09/19 04:37:16;;;;;;;1.40;0.90;;;23.10;52.40;;;;;;5033219;28;20865;-64
2021/09/19 04:39:43;;;;;;;1.27;0.85;;;23.10;52.50;;;;;;5032284;28;20426;-63
2021/09/19 04:42:10;;;;;;;1.20;0.90;;;23.10;52.40;;;;;;5032919;28;20421;-64
2021/09/19 04:44:36;;;;;;;1.40;0.97;;;23.00;52.20;;;;;;5033076;28;20395;-64
2021/09/19 04:47:02;;;;;;;1.10;0.90;;;23.00;52.40;;;;;;5031736;28;20388;-64
2021/09/19 04:49:28;;;;;;;1.30;0.90;;;23.00;52.30;;;;;;5031419;28;20429;-64
2021/09/19 04:51:53;;;;;;;2.30;1.00;;;23.00;52.40;;;;;;5032620;28;20379;-64
2021/09/19 04:54:19;;;;;;;1.20;0.90;;;23.00;52.30;;;;;;5032905;28;20399;-64
2021/09/19 04:56:44;;;;;;;1.35;0.85;;;23.00;52.50;;;;;;5032717;28;20470;-64
2021/09/19 04:59:10;;;;;;;1.10;0.90;;;23.00;52.50;;;;;;5032742;28;20770;-64
2021/09/19 05:01:36;;;;;;;1.50;1.08;;;23.00;52.50;;;;;;5031368;28;20928;-64
2021/09/19 05:04:01;;;;;;;1.13;0.83;;;23.00;52.60;;;;;;5032618;28;20486;-64
2021/09/19 05:06:27;;;;;;;1.30;1.02;;;23.00;52.20;;;;;;5031119;28;20383;-64
2021/09/19 05:08:53;;;;;;;1.50;0.90;;;23.00;52.50;;;;;;5032479;28;20407;-64
2021/09/19 05:11:18;;;;;;;1.10;0.88;;;23.00;52.40;;;;;;5031153;28;20395;-64
2021/09/19 05:13:44;;;;;;;1.20;0.97;;;23.00;52.50;;;;;;5031934;28;20765;-63
2021/09/19 05:16:10;;;;;;;1.20;0.90;;;23.00;52.50;;;;;;5032448;28;20441;-64
2021/09/19 05:18:35;;;;;;;1.00;0.82;;;23.00;52.30;;;;;;5032305;28;20885;-64
2021/09/19 05:21:02;;;;;;;1.10;0.80;;;23.00;52.50;;;;;;5032255;28;20410;-63
2021/09/19 05:23:28;;;;;;;2.30;1.00;;;23.00;52.50;;;;;;5032310;28;20398;-64
2021/09/19 05:25:54;;;;;;;1.20;0.82;;;23.00;52.50;;;;;;5031693;28;20453;-64
2021/09/19 05:28:20;;;;;;;1.20;0.90;;;23.00;52.50;;;;;;5030450;28;20396;-63
2021/09/19 05:30:45;;;;;;;1.27;1.00;;;22.90;52.20;;;;;;5031789;28;20894;-64
2021/09/19 05:33:11;;;;;;;1.20;1.10;;;22.90;52.40;;;;;;5032188;28;20819;-63
2021/09/19 05:35:37;;;;;;;1.17;0.80;;;22.90;52.30;;;;;;5031594;28;20399;-64
2021/09/19 05:38:06;;;;;;;1.30;1.00;;;22.90;52.40;;;;;;5030584;28;20409;-64
2021/09/19 05:40:33;;;;;;;1.35;0.88;;;22.90;52.50;;;;;;5032047;28;20407;-64
2021/09/19 05:43:01;;;;;;;1.30;1.02;;;22.90;52.30;;;;;;5031925;28;20406;-64
2021/09/19 05:45:28;;;;;;;1.40;0.93;;;22.90;52.50;;;;;;5031869;28;20873;-64
2021/09/19 05:47:53;;;;;;;1.20;0.90;;;22.90;52.40;;;;;;5031359;28;20975;-63
2021/09/19 05:50:19;;;;;;;1.15;0.80;;;22.90;52.60;;;;;;5031934;28;20387;-63
2021/09/19 05:52:44;;;;;;;1.27;0.97;;;22.90;52.50;;;;;;5031710;28;20391;-64
2021/09/19 05:55:10;;;;;;;1.13;0.98;;;22.90;52.40;;;;;;5031832;28;20391;-64
2021/09/19 05:57:36;;;;;;;1.08;0.80;;;22.90;52.50;;;;;;5031300;28;20413;-64
2021/09/19 06:00:03;;;;;;;1.30;0.82;;;22.90;52.60;;;;;;5031620;28;20510;-64
2021/09/19 06:02:29;;;;;;;1.15;0.90;;;22.90;52.60;;;;;;5031633;28;20500;-66
2021/09/19 06:04:54;;;;;;;1.17;0.80;;;22.90;52.70;;;;;;5031574;28;20849;-63
2021/09/19 06:07:20;;;;;;;1.17;0.90;;;22.90;52.70;;;;;;5031366;28;20431;-64
2021/09/19 06:09:46;;;;;;;1.45;1.00;;;22.90;52.80;;;;;;5031023;28;20391;-64
2021/09/19 06:12:11;;;;;;;1.10;0.83;;;22.90;52.80;;;;;;5031542;28;20391;-65
2021/09/19 06:14:37;;;;;;;1.30;1.02;;;22.90;52.70;;;;;;5031747;28;20391;-64
2021/09/19 06:17:03;;;;;;;2.30;1.20;;;22.90;52.70;;;;;;5031294;28;20453;-64
2021/09/19 06:19:28;;;;;;;1.98;1.20;;;22.90;52.90;;;;;;5031364;28;20465;-64
2021/09/19 06:21:58;;;;;;;1.63;1.20;;;22.90;52.60;;;;;;5030364;28;20395;-64
2021/09/19 06:24:25;;;;;;;2.50;1.38;;;22.90;52.40;;;;;;5030465;28;20745;-64
2021/09/19 06:26:50;;;;;;;2.60;1.50;;;22.90;52.10;;;;;;5031733;28;20422;-69
2021/09/19 06:29:16;;;;;;;2.90;1.60;;;22.80;51.40;;;;;;5030860;28;20391;-64
2021/09/19 06:31:42;;;;;;;3.00;1.70;;;22.80;51.10;;;;;;5030344;28;20449;-65
2021/09/19 06:34:08;;;;;;;3.35;1.70;;;22.80;51.10;;;;;;5028924;28;20395;-79
2021/09/19 06:36:34;;;;;;;3.50;1.70;;;22.80;50.80;;;;;;5030375;28;20391;-64
2021/09/19 06:38:59;;;;;;;2.75;1.75;;;22.80;51.00;;;;;;5031104;28;20488;-74
2021/09/19 06:41:25;;;;;;;2.60;1.50;;;22.80;51.00;;;;;;5030452;28;20893;-81
2021/09/19 06:43:51;;;;;;;2.30;1.60;;;22.70;50.90;;;;;;5031220;28;20410;-67
2021/09/19 06:46:17;;;;;;;2.42;1.50;;;22.70;51.90;;;;;;5029343;28;20444;-64
2021/09/19 06:48:42;;;;;;;4.00;1.90;;;22.70;49.90;;;;;;5028161;28;20399;-64
2021/09/19 06:51:08;;;;;;;3.50;1.50;;;22.60;50.40;;;;;;5028353;28;20861;-65
2021/09/19 06:53:37;;;;;;;3.10;1.43;;;22.60;50.40;;;;;;5029493;28;20885;-65
2021/09/19 06:56:04;;;;;;;1.98;1.30;;;22.70;50.70;;;;;;5029324;28;20383;-64
2021/09/19 06:58:30;;;;;;;2.47;1.38;;;22.70;50.30;;;;;;5031223;28;20553;-82
2021/09/19 07:00:56;;;;;;;1.80;1.20;;;22.70;50.60;;;;;;5030438;28;20490;-68
2021/09/19 07:03:22;;;;;;;2.33;1.30;;;22.70;50.30;;;;;;5029823;28;20387;-64
2021/09/19 07:05:48;;;;;;;2.70;1.37;;;22.60;50.10;;;;;;5024558;28;20900;-65
2021/09/19 07:08:13;;;;;;;3.83;1.50;;;22.60;50.50;;;;;;5030743;28;20461;-65
2021/09/19 07:10:39;;;;;;;2.93;1.23;;;22.60;49.90;;;;;;5029790;28;20971;-65
2021/09/19 07:13:05;;;;;;;2.90;1.45;;;22.60;49.60;;;;;;5029483;28;20390;-62
2021/09/19 07:15:30;;;;;;;3.30;1.42;;;22.60;49.80;;;;;;5029717;28;20434;-62
2021/09/19 07:17:56;;;;;;;4.25;1.17;;;22.60;50.00;;;;;;5029042;28;20380;-63
2021/09/19 07:20:22;;;;;;;2.40;1.30;;;22.60;50.10;;;;;;5029579;28;20454;-63
2021/09/19 07:22:47;;;;;;;2.10;1.40;;;22.60;50.10;;;;;;5029590;28;20387;-63
2021/09/19 07:25:13;;;;;;;2.65;1.40;;;22.60;50.20;;;;;;5029593;28;20474;-62
2021/09/19 07:27:40;;;;;;;2.50;1.60;;;22.60;50.20;;;;;;5029151;28;20399;-63
2021/09/19 07:30:08;;;;;;;3.45;1.75;;;22.70;50.00;;;;;;5029492;28;20401;-62
2021/09/19 07:32:34;;;;;;;4.00;1.98;;;22.70;50.10;;;;;;5029355;28;20497;-62
2021/09/19 07:35:01;;;;;;;3.05;1.83;;;22.60;49.80;;;;;;5031592;28;20413;-63
2021/09/19 07:37:27;;;;;;;3.08;1.75;;;22.70;49.70;;;;;;5032921;28;20387;-63
2021/09/19 07:39:52;;;;;;;2.75;1.88;;;22.70;49.90;;;;;;5032167;28;20848;-62
2021/09/19 07:42:18;;;;;;;3.38;1.88;;;22.70;49.90;;;;;;5031424;28;20390;-62
2021/09/19 07:44:44;;;;;;;4.30;2.10;;;22.70;50.00;;;;;;5032709;28;20435;-62
2021/09/19 07:47:10;;;;;;;3.50;2.08;;;22.60;49.70;;;;;;5032975;28;20898;-63
2021/09/19 07:49:36;;;;;;;4.13;3.03;;;22.60;49.60;;;;;;5031521;28;20434;-63
2021/09/19 07:52:05;;;;;;;6.25;4.30;;;22.60;51.00;;;;;;5032826;28;20391;-62
2021/09/19 07:54:32;;;;;;;4.57;2.50;;;22.70;51.20;;;;;;5032604;28;20449;-62
2021/09/19 07:56:57;;;;;;;4.00;2.63;;;22.70;51.00;;;;;;5032765;28;20422;-63
2021/09/19 07:59:23;;;;;;;5.03;2.50;;;22.70;51.20;;;;;;5031776;28;20450;-62
2021/09/19 08:01:49;;;;;;;3.90;2.40;;;22.70;50.80;;;;;;5031574;28;20391;-63
2021/09/19 08:04:14;;;;;;;3.60;2.38;;;22.70;50.70;;;;;;5033004;28;20395;-62
2021/09/19 08:06:40;;;;;;;4.60;2.40;;;22.70;50.80;;;;;;5033679;28;20404;-62
2021/09/19 08:09:06;;;;;;;4.22;2.30;;;22.70;50.90;;;;;;5033534;28;20746;-63
2021/09/19 08:11:32;;;;;;;3.30;2.23;;;22.70;51.00;;;;;;5033698;28;20456;-63
2021/09/19 08:14:05;;;;;;;4.03;2.40;;;22.70;51.20;;;;;;5033065;28;20398;-62
2021/09/19 08:16:32;;;;;;;2.95;2.10;;;22.70;51.40;;;;;;5033500;28;20399;-63
2021/09/19 08:18:58;;;;;;;2.80;2.08;;;22.70;51.30;;;;;;5033229;28;20460;-63
2021/09/19 08:21:24;;;;;;;3.50;2.28;;;22.70;51.30;;;;;;5033524;28;20498;-63
2021/09/19 08:23:49;;;;;;;2.90;2.20;;;22.70;51.60;;;;;;5032896;28;20432;-63
2021/09/19 08:26:15;;;;;;;4.32;2.17;;;22.70;51.60;;;;;;5032058;28;20908;-63
2021/09/19 08:28:40;;;;;;;3.07;2.10;;;22.80;51.60;;;;;;5033230;28;20454;-63
2021/09/19 08:31:06;;;;;;;2.63;2.00;;;22.70;51.60;;;;;;5033511;28;20449;-63
2021/09/19 08:33:32;;;;;;;2.90;1.92;;;22.70;51.70;;;;;;5033197;28;20460;-63
2021/09/19 08:35:59;;;;;;;2.90;2.03;;;22.80;51.80;;;;;;5032902;28;20470;-64
2021/09/19 08:38:25;;;;;;;3.08;2.03;;;22.80;51.90;;;;;;5034096;28;20437;-63
2021/09/19 08:40:53;;;;;;;2.72;1.80;;;22.80;51.70;;;;;;5033288;28;20395;-63
2021/09/19 08:43:19;;;;;;;4.35;1.70;;;22.80;51.80;;;;;;5032918;28;20391;-63
2021/09/19 08:45:52;;;;;;;2.40;1.80;;;22.80;51.80;;;;;;5031353;28;20877;-63
2021/09/19 08:48:25;;;;;;;2.67;1.88;;;22.80;51.80;;;;;;5033029;28;20396;-63
2021/09/19 08:50:53;;;;;;;2.57;1.70;;;22.80;51.70;;;;;;5033191;28;20458;-63
2021/09/19 08:53:19;;;;;;;2.30;1.70;;;22.80;51.70;;;;;;5032561;28;20454;-63
2021/09/19 08:55:46;;;;;;;3.00;1.90;;;22.90;51.80;;;;;;5031096;28;20396;-63
2021/09/19 08:58:12;;;;;;;2.80;1.83;;;22.80;51.80;;;;;;5032639;28;20383;-63
2021/09/19 09:00:40;;;;;;;2.77;2.00;;;22.90;51.80;;;;;;5031767;28;20453;-63
2021/09/19 09:03:13;;;;;;;2.90;1.80;;;22.90;51.80;;;;;;5032458;28;20383;-63
2021/09/19 09:05:39;;;;;;;3.10;1.90;;;22.90;51.80;;;;;;5032384;28;20393;-66
2021/09/19 09:08:09;;;;;;;3.40;2.20;;;22.90;51.90;;;;;;5032210;28;20410;-63
2021/09/19 09:10:43;;;;;;;2.42;1.70;;;22.90;51.90;;;;;;5032667;28;20383;-64
2021/09/19 09:13:15;;;;;;;2.28;1.80;;;22.90;52.00;;;;;;5031957;28;20446;-66
2021/09/19 09:15:45;;;;;;;2.60;1.70;;;22.90;52.10;;;;;;5030885;28;20970;-68
2021/09/19 09:18:26;;;;;;;2.33;1.60;;;22.90;52.00;;;;;;5031274;28;20387;-74
2021/09/19 09:20:57;;;;;;;2.33;1.60;;;22.90;52.00;;;;;;5031080;28;20410;-64
2021/09/19 09:23:33;;;;;;;3.10;1.40;;;22.90;52.00;;;;;;5030190;28;20421;-64
2021/09/19 09:26:16;;;;;;;2.30;1.70;;;22.90;52.10;;;;;;5026902;28;20431;-64
2021/09/19 09:29:04;;;;;;;2.03;1.70;;;22.90;52.10;;;;;;5024625;28;20407;-63
2021/09/19 09:31:37;;;;;;;2.28;1.65;;;22.90;52.00;;;;;;5026475;28;20383;-64
2021/09/19 09:34:14;;;;;;;1.95;1.45;;;22.90;52.10;;;;;;5025867;28;20399;-64
2021/09/19 09:36:52;;;;;;;2.50;1.70;;;22.90;52.20;;;;;;5030815;28;20399;-63
2021/09/19 09:39:34;;;;;;;1.92;1.70;;;23.00;52.20;;;;;;5030680;28;20450;-63
2021/09/19 09:42:08;;;;;;;2.50;1.70;;;22.90;52.10;;;;;;5028887;28;20777;-63
2021/09/19 09:44:39;;;;;;;2.33;1.50;;;22.90;52.20;;;;;;5030398;28;20881;-63
2021/09/19 09:47:12;;;;;;;2.55;1.80;;;23.00;52.20;;;;;;5030420;28;20395;-64
2021/09/19 09:49:46;;;;;;;1.98;1.60;;;23.00;52.30;;;;;;5031330;28;20390;-63
2021/09/19 09:52:32;;;;;;;2.10;1.60;;;23.00;52.20;;;;;;5031840;28;20769;-63
2021/09/19 09:55:01;;;;;;;2.30;1.70;;;22.90;52.20;;;;;;5031774;28;20406;-63
2021/09/19 09:57:36;;;;;;;2.40;1.50;;;23.00;52.20;;;;;;5030155;28;20410;-64
2021/09/19 10:00:11;;;;;;;1.90;1.60;;;23.00;52.30;;;;;;5030273;28;20482;-63
2021/09/19 10:02:46;;;;;;;2.28;1.60;;;23.00;52.20;;;;;;5031799;28;20423;-63
2021/09/19 10:05:14;;;;;;;1.90;1.50;;;23.00;52.20;;;;;;5031675;28;20427;-63
2021/09/19 10:07:42;;;;;;;2.10;1.45;;;23.00;52.40;;;;;;5031284;28;20407;-63
2021/09/19 10:10:12;;;;;;;2.10;1.42;;;23.00;52.30;;;;;;5031336;28;20433;-63
2021/09/19 10:12:38;;;;;;;2.20;1.50;;;23.00;52.40;;;;;;5031497;28;20869;-63
2021/09/19 10:15:06;;;;;;;2.30;1.52;;;23.00;52.40;;;;;;5031393;28;20430;-63
2021/09/19 10:17:32;;;;;;;2.28;1.73;;;23.00;52.30;;;;;;5031376;28;20379;-63
2021/09/19 10:19:59;;;;;;;2.00;1.58;;;23.00;52.40;;;;;;5030839;28;21277;-64
2021/09/19 10:22:31;;;;;;;2.53;1.57;;;23.00;52.40;;;;;;5031427;28;20399;-67
2021/09/19 10:24:59;;;;;;;1.90;1.60;;;23.00;52.40;;;;;;5030341;28;20407;-63
2021/09/19 10:27:33;;;;;;;2.15;1.55;;;23.00;52.40;;;;;;5014155;28;20399;-64
2021/09/19 10:30:10;;;;;;;1.70;1.40;;;23.00;52.50;;;;;;5029802;28;20897;-63
2021/09/19 10:32:43;;;;;;;2.13;1.58;;;23.00;52.50;;;;;;5030721;28;20790;-63
2021/09/19 10:35:29;;;;;;;1.85;1.55;;;23.00;52.50;;;;;;5031186;28;20387;-64
2021/09/19 10:37:54;;;;;;;1.83;1.53;;;23.00;52.50;;;;;;5030746;28;20475;-63
2021/09/19 10:40:37;;;;;;;2.25;1.50;;;23.00;52.50;;;;;;5030871;28;20498;-73
2021/09/19 10:43:09;;;;;;;2.08;1.70;;;23.00;52.50;;;;;;5031160;28;20487;-63
2021/09/19 10:45:42;;;;;;;2.13;1.70;;;23.10;52.60;;;;;;5029568;28;20936;-63
2021/09/19 10:48:19;;;;;;;2.40;1.92;;;23.00;52.50;;;;;;5030256;28;21198;-63
2021/09/19 10:50:46;;;;;;;4.20;2.67;;;23.00;52.70;;;;;;5030337;28;20448;-63
2021/09/19 10:53:12;;;;;;;3.47;2.83;;;23.00;52.60;;;;;;5030255;28;20387;-63
2021/09/19 10:55:56;;;;;;;3.40;3.10;;;23.10;52.50;;;;;;5030648;28;20872;-63
2021/09/19 10:58:29;;;;;;;6.20;3.38;;;23.00;52.30;;;;;;5029824;28;20466;-63
2021/09/19 11:01:10;;;;;;;4.13;3.22;;;23.00;52.40;;;;;;5030854;28;20433;-64
2021/09/19 11:03:36;;;;;;;3.80;3.08;;;23.00;52.30;;;;;;5030852;28;20752;-63
2021/09/19 11:06:02;;;;;;;6.38;3.70;;;23.00;52.40;;;;;;5030387;28;20475;-63
2021/09/19 11:08:37;;;;;;;4.88;3.70;;;23.00;52.30;;;;;;5032457;28;20402;-63
2021/09/19 11:11:08;;;;;;;4.78;3.38;;;23.00;52.30;;;;;;5034838;28;20375;-63
2021/09/19 11:13:41;;;;;;;4.17;3.53;;;23.00;52.40;;;;;;5034668;28;20429;-63
2021/09/19 11:16:07;;;;;;;3.97;3.43;;;23.00;52.30;;;;;;5033432;28;20896;-63
2021/09/19 11:18:39;;;;;;;3.92;3.00;;;23.00;52.20;;;;;;5034547;28;20418;-65
2021/09/19 11:21:10;;;;;;;3.50;2.33;;;23.00;52.30;;;;;;5034614;28;20405;-63
2021/09/19 11:23:39;;;;;;;3.85;2.53;;;23.50;56.00;;;;;;5033301;28;20419;-64
2021/09/19 11:26:05;;;;;;;4.70;2.50;;;24.20;52.20;;;;;;5033990;28;20402;-63
2021/09/19 11:28:34;;;;;;;2.90;2.60;;;24.50;50.60;;;;;;5034351;28;20415;-63
2021/09/19 11:31:00;;;;;;;4.28;2.58;;;24.90;49.80;;;;;;5034264;28;20490;-63
2021/09/19 11:33:28;;;;;;;5.85;5.13;;;25.10;49.50;;;;;;5023214;28;20499;-64
2021/09/19 11:36:08;;;;;;;32.50;29.93;;;25.20;48.90;;;;;;5030784;28;20401;-63
2021/09/19 11:38:35;;;;;;;26.20;24.00;;;25.20;48.90;;;;;;5032052;28;20397;-65
2021/09/19 11:41:01;;;;;;;25.75;23.45;;;25.20;48.80;;;;;;5022834;28;20967;-69
2021/09/19 11:43:27;;;;;;;17.30;15.80;;;25.40;48.80;;;;;;5015917;28;20486;-65
2021/09/19 11:45:53;;;;;;;14.10;12.80;;;25.50;48.30;;;;;;5030487;28;20402;-67
2021/09/19 11:48:19;;;;;;;10.48;9.38;;;25.60;48.20;;;;;;5033988;28;20942;-64
2021/09/19 11:50:48;;;;;;;9.77;7.85;;;25.60;48.00;;;;;;5033744;28;20399;-65
2021/09/19 11:53:14;;;;;;;10.35;6.30;;;25.80;47.80;;;;;;5033955;28;20395;-68
2021/09/19 11:55:45;;;;;;;9.25;5.20;;;25.80;47.70;;;;;;5033640;28;20505;-71
2021/09/19 11:58:16;;;;;;;5.53;4.63;;;25.80;47.40;;;;;;5032735;28;20387;-69
2021/09/19 12:00:45;;;;;;;5.13;4.10;;;25.80;47.40;;;;;;5032299;28;20769;-63
2021/09/19 12:03:11;;;;;;;5.53;4.10;;;25.80;47.20;;;;;;5032587;28;20455;-65
2021/09/19 12:05:37;;;;;;;4.10;3.42;;;26.00;47.10;;;;;;5032356;28;20442;-63
2021/09/19 12:08:04;;;;;;;4.25;3.47;;;26.00;46.70;;;;;;5032345;28;20399;-64
2021/09/19 12:10:31;;;;;;;4.45;3.50;;;26.00;46.90;;;;;;5033713;28;20403;-65
2021/09/19 12:12:56;;;;;;;3.55;3.25;;;26.00;46.80;;;;;;5029319;28;20400;-63
2021/09/19 12:15:26;;;;;;;4.53;3.30;;;26.10;46.60;;;;;;5022149;28;20408;-63
2021/09/19 12:18:06;;;;;;;4.80;3.50;;;26.20;46.80;;;;;;5012840;28;20447;-64
2021/09/19 12:20:32;;;;;;;4.97;3.20;;;26.40;46.80;;;;;;5012596;28;20423;-67
2021/09/19 12:23:17;;;;;;;3.60;3.30;;;26.50;46.60;;;;;;5013463;28;20532;-63
2021/09/19 12:25:45;;;;;;;4.43;3.47;;;26.50;46.00;;;;;;5013168;28;20400;-64
2021/09/19 12:28:11;;;;;;;3.80;3.33;;;26.40;46.00;;;;;;5012921;28;20391;-64
2021/09/19 12:30:40;;;;;;;3.50;2.93;;;26.40;45.70;;;;;;5013476;28;20487;-63
2021/09/19 12:33:10;;;;;;;4.73;3.43;;;26.30;45.40;;;;;;5013093;28;20388;-63
2021/09/19 12:35:35;;;;;;;3.27;2.97;;;26.40;45.60;;;;;;5013560;28;20431;-69
2021/09/19 12:38:10;;;;;;;4.80;2.95;;;26.40;45.50;;;;;;5012676;28;20429;-63
2021/09/19 12:40:35;;;;;;;2.92;2.50;;;26.40;45.10;;;;;;5013174;28;20469;-65
2021/09/19 12:43:09;;;;;;;3.27;2.80;;;26.40;45.30;;;;;;5030011;28;20885;-64
2021/09/19 12:45:37;;;;;;;3.63;2.90;;;26.40;45.20;;;;;;5032599;28;20871;-63
2021/09/19 12:48:06;;;;;;;3.73;2.97;;;26.50;45.40;;;;;;5032501;28;20422;-63